createdAt,value
2023-03-06T00:03:34.181Z,3.80
2023-03-06T00:07:41.821Z,3.70
2023-03-06T00:11:48.519Z,3.60
2023-03-06T00:15:58.625Z,3.90
2023-03-06T00:20:07.164Z,3.50
2023-03-06T00:24:13.905Z,3.40
2023-03-06T00:28:20.587Z,3.40
2023-03-06T00:32:28.281Z,3.30
2023-03-06T00:36:35.111Z,3.30
2023-03-06T00:40:41.802Z,3.30
2023-03-06T00:44:48.495Z,3.20
2023-03-06T00:48:55.153Z,3.00
2023-03-06T00:53:01.825Z,3.00
2023-03-06T00:57:08.934Z,2.90
2023-03-06T01:01:15.717Z,2.80
2023-03-06T01:05:22.589Z,2.70
2023-03-06T01:09:29.297Z,2.70
2023-03-06T01:13:35.952Z,2.60
2023-03-06T01:17:42.776Z,2.60
2023-03-06T01:21:49.496Z,2.50
2023-03-06T01:25:56.437Z,2.60
2023-03-06T01:30:04.979Z,2.60
2023-03-06T01:34:11.709Z,2.50
2023-03-06T01:38:18.405Z,2.50
2023-03-06T01:42:25.699Z,2.50
2023-03-06T01:46:41.994Z,2.50
2023-03-06T01:50:50.217Z,2.50
2023-03-06T01:55:08.569Z,2.50
2023-03-06T01:59:16.096Z,2.60
2023-03-06T02:03:25.068Z,2.50
2023-03-06T02:07:32.776Z,2.50
2023-03-06T02:11:43.825Z,2.50
2023-03-06T02:15:50.599Z,2.50
2023-03-06T02:20:28.871Z,2.40
2023-03-06T02:24:48.307Z,2.40
2023-03-06T02:28:57.300Z,2.30
2023-03-06T02:33:05.155Z,2.30
2023-03-06T02:37:11.831Z,2.20
2023-03-06T02:41:18.654Z,2.20
2023-03-06T02:45:36.163Z,2.10
2023-03-06T02:49:42.863Z,2.10
2023-03-06T02:53:49.796Z,2.10
2023-03-06T02:57:56.484Z,2.20
2023-03-06T03:02:03.242Z,2.30
2023-03-06T03:06:10.070Z,2.30
2023-03-06T03:10:16.990Z,2.30
2023-03-06T03:14:24.639Z,2.30
2023-03-06T03:18:31.533Z,2.40
2023-03-06T03:22:38.479Z,2.40
2023-03-06T03:26:45.145Z,2.40
2023-03-06T03:30:51.919Z,2.50
2023-03-06T03:34:58.645Z,2.50
2023-03-06T03:39:05.812Z,2.60
2023-03-06T03:43:12.482Z,2.60
2023-03-06T03:47:19.167Z,2.70
2023-03-06T03:51:26.100Z,2.70
2023-03-06T03:55:32.799Z,2.80
2023-03-06T03:59:39.470Z,2.80
2023-03-06T04:03:46.289Z,2.90
2023-03-06T04:07:52.980Z,2.90
2023-03-06T04:11:59.669Z,2.90
2023-03-06T04:16:06.961Z,3.00
2023-03-06T04:20:14.540Z,3.10
2023-03-06T04:24:21.199Z,3.10
2023-03-06T04:28:27.962Z,3.10
2023-03-06T04:32:34.656Z,3.10
2023-03-06T04:36:45.242Z,3.10
2023-03-06T04:40:51.908Z,3.50
2023-03-06T04:44:58.852Z,3.10
2023-03-06T04:49:05.583Z,3.10
2023-03-06T04:53:14.472Z,3.10
2023-03-06T04:57:22.070Z,3.20
2023-03-06T05:01:31.517Z,3.10
2023-03-06T05:05:38.196Z,4.30
2023-03-06T05:09:44.856Z,3.20
2023-03-06T05:13:51.651Z,3.20
2023-03-06T05:17:58.373Z,3.10
2023-03-06T05:22:05.395Z,3.00
2023-03-06T05:26:13.986Z,3.00
2023-03-06T05:30:23.046Z,3.10
2023-03-06T05:34:29.794Z,3.10
2023-03-06T05:38:36.548Z,3.20
2023-03-06T05:42:43.359Z,3.20
2023-03-06T05:46:50.768Z,3.10
2023-03-06T05:50:58.344Z,3.10
2023-03-06T05:55:05.456Z,3.10
2023-03-06T05:59:12.136Z,3.00
2023-03-06T06:03:19.722Z,2.90
2023-03-06T06:07:26.387Z,2.90
2023-03-06T06:11:33.040Z,2.80
2023-03-06T06:15:39.742Z,2.80
2023-03-06T06:19:46.442Z,2.70
2023-03-06T06:23:53.119Z,2.70
2023-03-06T06:27:59.803Z,2.70
2023-03-06T06:32:06.752Z,2.80
2023-03-06T06:36:19.559Z,2.90
2023-03-06T06:40:27.598Z,3.40
2023-03-06T06:44:34.323Z,3.00
2023-03-06T06:48:41.137Z,3.10
2023-03-06T06:52:47.898Z,3.20
2023-03-06T06:56:54.615Z,3.20
2023-03-06T07:01:09.010Z,3.30
2023-03-06T07:05:16.086Z,3.40
2023-03-06T07:09:23.139Z,3.40
2023-03-06T07:13:29.843Z,3.50
2023-03-06T07:17:36.537Z,3.50
2023-03-06T07:21:43.230Z,3.40
2023-03-06T07:25:50.271Z,3.40
2023-03-06T07:29:57.001Z,3.40
2023-03-06T07:34:05.038Z,3.50
2023-03-06T07:38:12.305Z,3.50
2023-03-06T07:42:18.982Z,3.50
2023-03-06T07:46:25.738Z,3.50
2023-03-06T07:50:33.143Z,3.70
2023-03-06T07:54:39.819Z,3.80
2023-03-06T07:58:47.768Z,3.90
2023-03-06T08:02:54.569Z,3.80
2023-03-06T08:07:01.311Z,4.00
2023-03-06T08:11:09.873Z,4.20
2023-03-06T08:15:16.648Z,4.20
2023-03-06T08:19:23.512Z,4.40
2023-03-06T08:23:30.665Z,4.40
2023-03-06T08:27:37.370Z,4.50
2023-03-06T08:31:46.064Z,4.40
2023-03-06T08:35:52.987Z,4.30
2023-03-06T08:39:59.725Z,4.20
2023-03-06T08:44:06.856Z,4.00
2023-03-06T08:48:13.551Z,4.20
2023-03-06T08:52:20.274Z,4.30
2023-03-06T08:56:29.463Z,4.70
2023-03-06T09:00:38.488Z,4.90
2023-03-06T09:04:45.177Z,5.00
2023-03-06T09:08:52.859Z,5.00
2023-03-06T09:12:59.775Z,4.90
2023-03-06T09:17:06.458Z,5.00
2023-03-06T09:21:13.187Z,5.10
2023-03-06T09:25:22.462Z,5.20
2023-03-06T09:29:29.190Z,5.50
2023-03-06T09:33:36.052Z,5.50
2023-03-06T09:37:42.750Z,5.50
2023-03-06T09:41:50.364Z,5.50
2023-03-06T09:45:58.627Z,5.70
2023-03-06T09:50:20.155Z,6.00
2023-03-06T09:55:05.435Z,6.20
2023-03-06T09:59:17.294Z,6.60
2023-03-06T10:04:01.439Z,6.80
2023-03-06T10:08:23.676Z,7.00
2023-03-06T10:12:39.994Z,7.10
2023-03-06T10:16:46.906Z,7.40
2023-03-06T10:21:18.791Z,7.50
2023-03-06T10:25:35.467Z,7.30
2023-03-06T10:30:03.560Z,6.80
2023-03-06T10:34:24.268Z,6.70
2023-03-06T10:38:30.911Z,6.90
2023-03-06T10:42:37.583Z,7.20
2023-03-06T10:46:46.947Z,7.60
2023-03-06T10:51:17.795Z,7.60
2023-03-06T10:55:27.418Z,7.50
2023-03-06T10:59:34.094Z,8.30
2023-03-06T11:03:41.056Z,8.80
2023-03-06T11:07:59.554Z,8.70
2023-03-06T11:12:23.319Z,7.60
2023-03-06T11:16:30.711Z,7.40
2023-03-06T11:20:52.053Z,7.80
2023-03-06T11:24:59.666Z,8.30
2023-03-06T11:29:12.370Z,8.70
2023-03-06T11:33:46.411Z,9.10
2023-03-06T11:37:58.408Z,9.30
2023-03-06T11:42:29.257Z,9.70
2023-03-06T11:46:47.118Z,10.10
2023-03-06T11:51:02.176Z,10.40
2023-03-06T11:55:16.272Z,10.40
2023-03-06T11:59:34.931Z,10.30
2023-03-06T12:04:12.460Z,10.20
2023-03-06T12:08:46.347Z,10.40
2023-03-06T12:13:34.680Z,11.80
2023-03-06T12:18:09.159Z,10.80
2023-03-06T12:22:57.495Z,11.00
2023-03-06T12:27:22.997Z,11.00
2023-03-06T12:31:36.497Z,10.70
2023-03-06T12:36:04.550Z,10.70
2023-03-06T12:40:17.074Z,10.60
2023-03-06T12:45:05.196Z,10.00
2023-03-06T12:49:31.968Z,9.80
2023-03-06T12:53:40.965Z,9.90
2023-03-06T12:57:49.706Z,9.90
2023-03-06T13:02:10.886Z,9.60
2023-03-06T13:06:39.148Z,9.70
2023-03-06T13:11:13.489Z,10.00
2023-03-06T13:15:37.514Z,10.30
2023-03-06T13:19:44.223Z,10.50
2023-03-06T13:23:52.292Z,10.90
2023-03-06T13:28:01.110Z,10.70
2023-03-06T13:32:18.559Z,10.20
2023-03-06T13:36:29.672Z,10.10
2023-03-06T13:40:36.380Z,9.70
2023-03-06T13:44:44.779Z,10.00
2023-03-06T13:49:10.545Z,10.30
2023-03-06T13:53:48.387Z,10.20
2023-03-06T13:58:13.967Z,10.20
2023-03-06T14:02:48.872Z,10.20
2023-03-06T14:07:07.887Z,10.30
2023-03-06T14:11:21.349Z,10.30
2023-03-06T14:15:53.102Z,9.90
2023-03-06T14:20:20.711Z,10.10
2023-03-06T14:24:37.554Z,10.20
2023-03-06T14:28:52.063Z,10.30
2023-03-06T14:32:59.267Z,10.40
2023-03-06T14:37:17.935Z,10.20
2023-03-06T14:41:33.361Z,10.20
2023-03-06T14:45:51.294Z,9.90
2023-03-06T14:50:24.503Z,9.60
2023-03-06T14:54:34.325Z,9.50
2023-03-06T14:58:46.247Z,9.20
2023-03-06T15:02:55.286Z,9.00
2023-03-06T15:07:05.913Z,8.80
2023-03-06T15:11:12.800Z,8.70
2023-03-06T15:15:27.094Z,8.60
2023-03-06T15:19:40.588Z,8.50
2023-03-06T15:23:52.555Z,8.40
2023-03-06T15:28:03.950Z,8.40
2023-03-06T15:32:36.817Z,8.40
2023-03-06T15:36:49.057Z,8.20
2023-03-06T15:41:01.191Z,8.00
2023-03-06T15:45:20.092Z,7.50
2023-03-06T15:49:26.828Z,7.20
2023-03-06T15:53:33.482Z,7.00
2023-03-06T15:57:52.945Z,6.70
2023-03-06T16:02:11.650Z,6.70
2023-03-06T16:06:20.621Z,6.90
2023-03-06T16:10:29.762Z,6.90
2023-03-06T16:14:36.468Z,6.80
2023-03-06T16:18:43.165Z,6.70
2023-03-06T16:22:50.230Z,6.40
2023-03-06T16:27:00.548Z,6.40
2023-03-06T16:31:07.285Z,6.30
2023-03-06T16:35:14.872Z,6.30
2023-03-06T16:39:23.561Z,6.20
2023-03-06T16:43:30.243Z,6.10
2023-03-06T16:47:37.413Z,6.00
2023-03-06T16:51:44.392Z,5.80
2023-03-06T16:55:51.084Z,5.70
2023-03-06T16:59:57.778Z,5.60
2023-03-06T17:04:04.593Z,5.50
2023-03-06T17:08:11.294Z,5.30
2023-03-06T17:12:18.074Z,5.30
2023-03-06T17:16:24.839Z,5.40
2023-03-06T17:20:31.550Z,5.30
2023-03-06T17:24:38.269Z,5.20
2023-03-06T17:28:46.352Z,5.20
2023-03-06T17:32:53.651Z,5.30
2023-03-06T17:37:01.425Z,5.30
2023-03-06T17:41:10.365Z,5.30
2023-03-06T17:45:17.234Z,5.20
2023-03-06T17:49:25.180Z,5.10
2023-03-06T17:53:32.143Z,5.20
2023-03-06T17:57:39.160Z,5.10
2023-03-06T18:01:46.104Z,5.10
2023-03-06T18:06:03.359Z,5.10
2023-03-06T18:10:10.451Z,5.20
2023-03-06T18:14:17.127Z,5.00
2023-03-06T18:18:24.453Z,5.00
2023-03-06T18:22:31.296Z,5.10
2023-03-06T18:26:38.193Z,5.00
2023-03-06T18:30:44.948Z,5.10
2023-03-06T18:34:51.701Z,5.70
2023-03-06T18:38:59.379Z,4.90
2023-03-06T18:43:06.097Z,4.90
2023-03-06T18:47:12.773Z,4.90
2023-03-06T18:51:20.139Z,4.90
2023-03-06T18:55:26.969Z,4.90
2023-03-06T18:59:33.694Z,4.80
2023-03-06T19:03:40.653Z,4.80
2023-03-06T19:07:47.340Z,4.70
2023-03-06T19:11:54.948Z,4.70
2023-03-06T19:16:02.166Z,4.70
2023-03-06T19:20:09.667Z,4.60
2023-03-06T19:24:16.362Z,4.60
2023-03-06T19:28:23.076Z,4.60
2023-03-06T19:32:29.813Z,4.90
2023-03-06T19:36:38.742Z,4.60
2023-03-06T19:40:50.001Z,4.60
2023-03-06T19:44:56.703Z,4.60
2023-03-06T19:49:09.594Z,4.50
2023-03-06T19:53:16.827Z,4.60
2023-03-06T19:57:23.513Z,4.50
2023-03-06T20:01:30.384Z,4.60
2023-03-06T20:05:37.131Z,4.60
2023-03-06T20:09:43.855Z,4.50
2023-03-06T20:13:51.262Z,4.60
2023-03-06T20:17:58.002Z,4.50
2023-03-06T20:22:04.785Z,4.40
2023-03-06T20:26:13.298Z,4.50
2023-03-06T20:30:20.030Z,4.50
2023-03-06T20:34:26.931Z,4.30
2023-03-06T20:38:33.931Z,4.40
2023-03-06T20:42:40.615Z,4.30
2023-03-06T20:46:47.573Z,4.40
2023-03-06T20:51:24.879Z,4.30
2023-03-06T20:55:31.531Z,4.20
2023-03-06T20:59:38.379Z,4.10
2023-03-06T21:03:45.076Z,5.10
2023-03-06T21:07:52.680Z,4.00
2023-03-06T21:11:59.835Z,4.00
2023-03-06T21:16:09.939Z,4.00
2023-03-06T21:20:16.812Z,4.00
2023-03-06T21:24:23.515Z,4.00
2023-03-06T21:28:30.930Z,4.10
2023-03-06T21:32:37.684Z,4.10
2023-03-06T21:36:44.560Z,4.10
2023-03-06T21:40:51.470Z,4.20
2023-03-06T21:44:59.793Z,4.30
2023-03-06T21:49:06.625Z,4.30
2023-03-06T21:53:13.302Z,4.30
2023-03-06T21:57:19.991Z,4.30
2023-03-06T22:01:28.861Z,4.40
2023-03-06T22:05:35.641Z,4.50
2023-03-06T22:09:42.362Z,4.50
2023-03-06T22:13:49.503Z,4.50
2023-03-06T22:17:56.245Z,4.70
2023-03-06T22:22:03.764Z,4.60
2023-03-06T22:26:14.301Z,4.70
2023-03-06T22:30:21.080Z,4.80
2023-03-06T22:34:27.752Z,4.80
2023-03-06T22:38:37.633Z,4.80
2023-03-06T22:42:44.324Z,4.80
2023-03-06T22:46:51.775Z,4.90
2023-03-06T22:51:06.320Z,5.00
2023-03-06T22:55:12.972Z,5.10
2023-03-06T22:59:19.625Z,5.00
2023-03-06T23:03:26.293Z,5.10
2023-03-06T23:07:32.960Z,5.10
2023-03-06T23:11:39.627Z,5.10
2023-03-06T23:15:46.316Z,5.30
2023-03-06T23:19:53.221Z,5.20
2023-03-06T23:24:00.163Z,5.20
2023-03-06T23:28:07.622Z,5.30
2023-03-06T23:32:14.303Z,5.30
2023-03-06T23:36:21.101Z,5.20
2023-03-06T23:40:28.297Z,5.20
2023-03-06T23:44:35.705Z,5.20
2023-03-06T23:48:43.339Z,5.20
2023-03-06T23:52:53.765Z,5.30
2023-03-06T23:57:00.432Z,5.30
